sensor_id;sensor_type;location;lat;lon;timestamp;P1;durP1;ratioP1;P2;durP2;ratioP2
58982;SDS011;44771;49.982;8.560;2023-04-25T00:02:30;16.98;;;15.18;;
58982;SDS011;44771;49.982;8.560;2023-04-25T00:07:33;17.10;;;15.43;;
58982;SDS011;44771;49.982;8.560;2023-04-25T00:12:35;18.17;;;16.20;;
58982;SDS011;44771;49.982;8.560;2023-04-25T00:17:37;15.35;;;13.98;;
58982;SDS011;44771;49.982;8.560;2023-04-25T00:22:41;17.05;;;15.43;;
58982;SDS011;44771;49.982;8.560;2023-04-25T00:27:42;17.87;;;16.25;;
58982;SDS011;44771;49.982;8.560;2023-04-25T00:32:44;16.70;;;15.02;;
58982;SDS011;44771;49.982;8.560;2023-04-25T00:37:47;17.48;;;15.52;;
58982;SDS011;44771;49.982;8.560;2023-04-25T00:42:49;18.08;;;16.23;;
58982;SDS011;44771;49.982;8.560;2023-04-25T00:47:53;18.55;;;16.62;;
58982;SDS011;44771;49.982;8.560;2023-04-25T00:52:57;18.08;;;16.17;;
58982;SDS011;44771;49.982;8.560;2023-04-25T00:57:59;18.77;;;16.80;;
58982;SDS011;44771;49.982;8.560;2023-04-25T01:03:00;19.70;;;17.37;;
58982;SDS011;44771;49.982;8.560;2023-04-25T01:08:04;17.70;;;15.80;;
58982;SDS011;44771;49.982;8.560;2023-04-25T01:13:06;20.02;;;17.92;;
58982;SDS011;44771;49.982;8.560;2023-04-25T01:18:08;23.23;;;17.85;;
58982;SDS011;44771;49.982;8.560;2023-04-25T01:23:11;19.12;;;16.37;;
58982;SDS011;44771;49.982;8.560;2023-04-25T01:28:14;21.30;;;17.67;;
58982;SDS011;44771;49.982;8.560;2023-04-25T01:33:16;18.73;;;15.30;;
58982;SDS011;44771;49.982;8.560;2023-04-25T01:38:21;21.48;;;18.92;;
58982;SDS011;44771;49.982;8.560;2023-04-25T01:43:23;21.12;;;18.90;;
58982;SDS011;44771;49.982;8.560;2023-04-25T01:48:25;20.88;;;18.70;;
58982;SDS011;44771;49.982;8.560;2023-04-25T01:53:28;20.55;;;17.90;;
58982;SDS011;44771;49.982;8.560;2023-04-25T01:58:30;20.77;;;17.00;;
58982;SDS011;44771;49.982;8.560;2023-04-25T02:03:32;20.70;;;17.42;;
58982;SDS011;44771;49.982;8.560;2023-04-25T02:08:35;21.08;;;18.77;;
58982;SDS011;44771;49.982;8.560;2023-04-25T02:13:37;21.95;;;18.50;;
58982;SDS011;44771;49.982;8.560;2023-04-25T02:18:39;24.85;;;20.00;;
58982;SDS011;44771;49.982;8.560;2023-04-25T02:23:42;24.45;;;18.67;;
58982;SDS011;44771;49.982;8.560;2023-04-25T02:28:44;20.88;;;18.70;;
58982;SDS011;44771;49.982;8.560;2023-04-25T02:33:45;20.75;;;17.80;;
58982;SDS011;44771;49.982;8.560;2023-04-25T02:38:49;21.92;;;17.77;;
58982;SDS011;44771;49.982;8.560;2023-04-25T02:43:50;20.98;;;18.73;;
58982;SDS011;44771;49.982;8.560;2023-04-25T02:48:53;23.52;;;17.23;;
58982;SDS011;44771;49.982;8.560;2023-04-25T02:53:56;20.98;;;17.65;;
58982;SDS011;44771;49.982;8.560;2023-04-25T02:58:57;21.27;;;19.05;;
58982;SDS011;44771;49.982;8.560;2023-04-25T03:03:59;23.40;;;17.42;;
58982;SDS011;44771;49.982;8.560;2023-04-25T03:09:02;24.05;;;19.70;;
58982;SDS011;44771;49.982;8.560;2023-04-25T03:14:04;25.20;;;19.33;;
58982;SDS011;44771;49.982;8.560;2023-04-25T03:19:06;26.50;;;18.37;;
58982;SDS011;44771;49.982;8.560;2023-04-25T03:24:09;22.25;;;18.73;;
58982;SDS011;44771;49.982;8.560;2023-04-25T03:29:10;27.20;;;19.87;;
58982;SDS011;44771;49.982;8.560;2023-04-25T03:34:12;23.20;;;19.92;;
58982;SDS011;44771;49.982;8.560;2023-04-25T03:39:15;24.92;;;18.25;;
58982;SDS011;44771;49.982;8.560;2023-04-25T03:44:17;34.58;;;20.08;;
58982;SDS011;44771;49.982;8.560;2023-04-25T03:49:19;30.67;;;20.55;;
58982;SDS011;44771;49.982;8.560;2023-04-25T03:54:22;29.45;;;20.33;;
58982;SDS011;44771;49.982;8.560;2023-04-25T03:59:24;24.67;;;19.90;;
58982;SDS011;44771;49.982;8.560;2023-04-25T04:04:26;27.45;;;19.05;;
58982;SDS011;44771;49.982;8.560;2023-04-25T04:09:29;24.98;;;18.83;;
58982;SDS011;44771;49.982;8.560;2023-04-25T04:14:31;29.02;;;21.15;;
58982;SDS011;44771;49.982;8.560;2023-04-25T04:19:32;28.52;;;19.77;;
58982;SDS011;44771;49.982;8.560;2023-04-25T04:24:35;25.75;;;22.83;;
58982;SDS011;44771;49.982;8.560;2023-04-25T04:29:37;31.00;;;20.60;;
58982;SDS011;44771;49.982;8.560;2023-04-25T04:34:39;32.60;;;21.30;;
58982;SDS011;44771;49.982;8.560;2023-04-25T04:39:42;26.35;;;18.27;;
58982;SDS011;44771;49.982;8.560;2023-04-25T04:44:44;29.65;;;20.05;;
58982;SDS011;44771;49.982;8.560;2023-04-25T04:49:45;27.50;;;18.95;;
58982;SDS011;44771;49.982;8.560;2023-04-25T04:54:48;27.20;;;18.12;;
58982;SDS011;44771;49.982;8.560;2023-04-25T04:59:50;23.40;;;17.67;;
58982;SDS011;44771;49.982;8.560;2023-04-25T05:04:52;26.23;;;18.35;;
58982;SDS011;44771;49.982;8.560;2023-04-25T05:09:55;31.45;;;18.33;;
58982;SDS011;44771;49.982;8.560;2023-04-25T05:14:57;29.00;;;19.50;;
58982;SDS011;44771;49.982;8.560;2023-04-25T05:19:59;29.65;;;19.50;;
58982;SDS011;44771;49.982;8.560;2023-04-25T05:25:02;30.80;;;18.92;;
58982;SDS011;44771;49.982;8.560;2023-04-25T05:30:04;32.88;;;19.77;;
58982;SDS011;44771;49.982;8.560;2023-04-25T05:35:07;24.25;;;18.42;;
58982;SDS011;44771;49.982;8.560;2023-04-25T05:40:11;29.58;;;19.58;;
58982;SDS011;44771;49.982;8.560;2023-04-25T05:45:12;33.97;;;19.30;;
58982;SDS011;44771;49.982;8.560;2023-04-25T05:50:14;25.98;;;18.85;;
58982;SDS011;44771;49.982;8.560;2023-04-25T05:55:17;26.58;;;19.92;;
58982;SDS011;44771;49.982;8.560;2023-04-25T06:00:19;26.92;;;20.20;;
58982;SDS011;44771;49.982;8.560;2023-04-25T06:05:21;23.95;;;17.67;;
58982;SDS011;44771;49.982;8.560;2023-04-25T06:10:24;24.80;;;19.37;;
58982;SDS011;44771;49.982;8.560;2023-04-25T06:15:26;25.95;;;16.87;;
58982;SDS011;44771;49.982;8.560;2023-04-25T06:20:34;23.42;;;17.42;;
58982;SDS011;44771;49.982;8.560;2023-04-25T06:25:37;21.67;;;17.02;;
58982;SDS011;44771;49.982;8.560;2023-04-25T06:30:39;20.77;;;17.15;;
58982;SDS011;44771;49.982;8.560;2023-04-25T06:35:41;23.75;;;16.08;;
58982;SDS011;44771;49.982;8.560;2023-04-25T06:40:44;19.30;;;16.00;;
58982;SDS011;44771;49.982;8.560;2023-04-25T06:45:45;18.52;;;13.55;;
58982;SDS011;44771;49.982;8.560;2023-04-25T06:50:48;18.23;;;14.77;;
58982;SDS011;44771;49.982;8.560;2023-04-25T06:55:52;17.40;;;15.60;;
58982;SDS011;44771;49.982;8.560;2023-04-25T07:00:53;15.43;;;14.13;;
58982;SDS011;44771;49.982;8.560;2023-04-25T07:05:55;15.50;;;13.93;;
58982;SDS011;44771;49.982;8.560;2023-04-25T07:10:58;18.30;;;15.48;;
58982;SDS011;44771;49.982;8.560;2023-04-25T07:16:00;20.40;;;15.02;;
58982;SDS011;44771;49.982;8.560;2023-04-25T07:21:02;18.45;;;15.27;;
58982;SDS011;44771;49.982;8.560;2023-04-25T07:26:05;20.23;;;16.42;;
58982;SDS011;44771;49.982;8.560;2023-04-25T07:31:07;16.92;;;15.27;;
58982;SDS011;44771;49.982;8.560;2023-04-25T07:36:09;18.83;;;15.25;;
58982;SDS011;44771;49.982;8.560;2023-04-25T07:41:12;16.55;;;14.80;;
58982;SDS011;44771;49.982;8.560;2023-04-25T07:46:14;16.17;;;14.50;;
58982;SDS011;44771;49.982;8.560;2023-04-25T07:51:15;15.93;;;14.27;;
58982;SDS011;44771;49.982;8.560;2023-04-25T07:56:18;19.98;;;15.18;;
58982;SDS011;44771;49.982;8.560;2023-04-25T08:01:20;16.35;;;14.80;;
58982;SDS011;44771;49.982;8.560;2023-04-25T08:06:22;19.08;;;13.85;;
58982;SDS011;44771;49.982;8.560;2023-04-25T08:11:26;15.48;;;14.02;;
58982;SDS011;44771;49.982;8.560;2023-04-25T08:16:28;14.90;;;12.75;;
58982;SDS011;44771;49.982;8.560;2023-04-25T08:21:30;15.73;;;13.60;;
58982;SDS011;44771;49.982;8.560;2023-04-25T08:26:33;16.60;;;14.85;;
58982;SDS011;44771;49.982;8.560;2023-04-25T08:31:35;15.30;;;13.55;;
58982;SDS011;44771;49.982;8.560;2023-04-25T08:36:38;13.98;;;12.77;;
58982;SDS011;44771;49.982;8.560;2023-04-25T08:41:42;13.88;;;12.63;;
58982;SDS011;44771;49.982;8.560;2023-04-25T08:46:44;18.90;;;13.07;;
58982;SDS011;44771;49.982;8.560;2023-04-25T08:51:49;16.17;;;14.52;;
58982;SDS011;44771;49.982;8.560;2023-04-25T08:56:54;16.37;;;13.15;;
58982;SDS011;44771;49.982;8.560;2023-04-25T09:01:58;15.25;;;13.77;;
58982;SDS011;44771;49.982;8.560;2023-04-25T09:07:01;14.00;;;12.57;;
58982;SDS011;44771;49.982;8.560;2023-04-25T09:12:04;14.68;;;13.60;;
58982;SDS011;44771;49.982;8.560;2023-04-25T09:17:06;13.73;;;12.52;;
58982;SDS011;44771;49.982;8.560;2023-04-25T09:22:08;14.32;;;13.07;;
58982;SDS011;44771;49.982;8.560;2023-04-25T09:27:12;16.08;;;13.23;;
58982;SDS011;44771;49.982;8.560;2023-04-25T09:32:19;18.35;;;14.60;;
58982;SDS011;44771;49.982;8.560;2023-04-25T09:37:23;14.68;;;13.40;;
58982;SDS011;44771;49.982;8.560;2023-04-25T09:42:28;14.18;;;13.00;;
58982;SDS011;44771;49.982;8.560;2023-04-25T09:47:30;15.13;;;13.55;;
58982;SDS011;44771;49.982;8.560;2023-04-25T09:52:32;14.82;;;13.43;;
58982;SDS011;44771;49.982;8.560;2023-04-25T09:57:35;14.90;;;13.52;;
58982;SDS011;44771;49.982;8.560;2023-04-25T10:02:37;15.93;;;14.35;;
58982;SDS011;44771;49.982;8.560;2023-04-25T10:07:43;16.55;;;15.05;;
58982;SDS011;44771;49.982;8.560;2023-04-25T10:12:47;16.62;;;14.93;;
58982;SDS011;44771;49.982;8.560;2023-04-25T10:17:49;14.73;;;13.40;;
58982;SDS011;44771;49.982;8.560;2023-04-25T10:22:51;15.25;;;13.68;;
58982;SDS011;44771;49.982;8.560;2023-04-25T10:33:00;16.23;;;13.90;;
58982;SDS011;44771;49.982;8.560;2023-04-25T10:38:03;15.27;;;13.68;;
58982;SDS011;44771;49.982;8.560;2023-04-25T10:48:45;15.83;;;14.63;;
58982;SDS011;44771;49.982;8.560;2023-04-25T10:53:58;15.60;;;13.93;;
58982;SDS011;44771;49.982;8.560;2023-04-25T10:59:08;15.48;;;12.70;;
58982;SDS011;44771;49.982;8.560;2023-04-25T11:04:21;15.88;;;14.45;;
58982;SDS011;44771;49.982;8.560;2023-04-25T11:09:27;15.80;;;14.30;;
58982;SDS011;44771;49.982;8.560;2023-04-25T11:14:30;15.88;;;14.73;;
58982;SDS011;44771;49.982;8.560;2023-04-25T11:19:32;18.45;;;13.02;;
58982;SDS011;44771;49.982;8.560;2023-04-25T11:24:35;16.50;;;15.13;;
58982;SDS011;44771;49.982;8.560;2023-04-25T11:29:47;13.98;;;12.73;;
58982;SDS011;44771;49.982;8.560;2023-04-25T11:34:49;15.15;;;13.20;;
58982;SDS011;44771;49.982;8.560;2023-04-25T11:39:51;15.15;;;13.60;;
58982;SDS011;44771;49.982;8.560;2023-04-25T11:44:54;14.27;;;12.70;;
58982;SDS011;44771;49.982;8.560;2023-04-25T11:49:57;18.20;;;14.57;;
58982;SDS011;44771;49.982;8.560;2023-04-25T11:54:59;21.08;;;15.30;;
58982;SDS011;44771;49.982;8.560;2023-04-25T12:00:06;14.82;;;13.25;;
58982;SDS011;44771;49.982;8.560;2023-04-25T12:05:14;17.00;;;15.50;;
58982;SDS011;44771;49.982;8.560;2023-04-25T12:10:32;14.48;;;13.15;;
58982;SDS011;44771;49.982;8.560;2023-04-25T12:15:40;15.93;;;12.75;;
58982;SDS011;44771;49.982;8.560;2023-04-25T12:20:42;15.07;;;13.62;;
58982;SDS011;44771;49.982;8.560;2023-04-25T12:25:44;15.18;;;13.77;;
58982;SDS011;44771;49.982;8.560;2023-04-25T12:30:54;13.90;;;12.52;;
58982;SDS011;44771;49.982;8.560;2023-04-25T12:35:56;16.80;;;13.65;;
58982;SDS011;44771;49.982;8.560;2023-04-25T12:40:59;14.48;;;13.05;;
58982;SDS011;44771;49.982;8.560;2023-04-25T12:46:02;16.48;;;14.00;;
58982;SDS011;44771;49.982;8.560;2023-04-25T12:51:04;15.90;;;14.25;;
58982;SDS011;44771;49.982;8.560;2023-04-25T12:56:06;19.00;;;14.32;;
58982;SDS011;44771;49.982;8.560;2023-04-25T13:01:10;13.43;;;12.13;;
58982;SDS011;44771;49.982;8.560;2023-04-25T13:06:11;14.50;;;13.40;;
58982;SDS011;44771;49.982;8.560;2023-04-25T13:11:13;19.35;;;12.73;;
58982;SDS011;44771;49.982;8.560;2023-04-25T13:16:17;16.98;;;12.40;;
58982;SDS011;44771;49.982;8.560;2023-04-25T13:21:18;16.85;;;13.27;;
58982;SDS011;44771;49.982;8.560;2023-04-25T13:26:20;13.65;;;12.43;;
58982;SDS011;44771;49.982;8.560;2023-04-25T13:31:23;15.45;;;13.48;;
58982;SDS011;44771;49.982;8.560;2023-04-25T13:36:25;14.45;;;11.52;;
58982;SDS011;44771;49.982;8.560;2023-04-25T13:41:27;14.73;;;13.38;;
58982;SDS011;44771;49.982;8.560;2023-04-25T13:46:33;15.13;;;13.38;;
58982;SDS011;44771;49.982;8.560;2023-04-25T13:51:46;14.25;;;13.15;;
58982;SDS011;44771;49.982;8.560;2023-04-25T13:56:48;14.65;;;13.45;;
58982;SDS011;44771;49.982;8.560;2023-04-25T14:01:52;14.13;;;12.88;;
58982;SDS011;44771;49.982;8.560;2023-04-25T14:06:54;13.95;;;12.73;;
58982;SDS011;44771;49.982;8.560;2023-04-25T14:11:55;14.10;;;12.82;;
58982;SDS011;44771;49.982;8.560;2023-04-25T14:16:59;16.50;;;14.00;;
58982;SDS011;44771;49.982;8.560;2023-04-25T14:22:00;15.73;;;12.95;;
58982;SDS011;44771;49.982;8.560;2023-04-25T14:27:05;12.75;;;11.60;;
58982;SDS011;44771;49.982;8.560;2023-04-25T14:32:08;15.32;;;14.00;;
58982;SDS011;44771;49.982;8.560;2023-04-25T14:37:10;17.60;;;12.80;;
58982;SDS011;44771;49.982;8.560;2023-04-25T14:42:12;15.40;;;13.07;;
58982;SDS011;44771;49.982;8.560;2023-04-25T14:47:15;14.20;;;12.75;;
58982;SDS011;44771;49.982;8.560;2023-04-25T14:52:17;14.35;;;13.20;;
58982;SDS011;44771;49.982;8.560;2023-04-25T14:57:19;18.25;;;12.65;;
58982;SDS011;44771;49.982;8.560;2023-04-25T15:02:22;13.38;;;12.10;;
58982;SDS011;44771;49.982;8.560;2023-04-25T15:07:24;14.27;;;13.10;;
58982;SDS011;44771;49.982;8.560;2023-04-25T15:12:26;14.38;;;11.60;;
58982;SDS011;44771;49.982;8.560;2023-04-25T15:17:29;15.95;;;14.75;;
58982;SDS011;44771;49.982;8.560;2023-04-25T15:22:31;12.93;;;11.82;;
58982;SDS011;44771;49.982;8.560;2023-04-25T15:27:32;14.38;;;13.13;;
58982;SDS011;44771;49.982;8.560;2023-04-25T15:32:36;15.05;;;13.57;;
58982;SDS011;44771;49.982;8.560;2023-04-25T15:37:40;13.20;;;12.07;;
58982;SDS011;44771;49.982;8.560;2023-04-25T15:42:43;12.70;;;11.45;;
58982;SDS011;44771;49.982;8.560;2023-04-25T15:47:47;14.85;;;12.57;;
58982;SDS011;44771;49.982;8.560;2023-04-25T15:52:50;15.82;;;14.07;;
58982;SDS011;44771;49.982;8.560;2023-04-25T15:57:52;15.13;;;13.57;;
58982;SDS011;44771;49.982;8.560;2023-04-25T16:02:55;15.23;;;13.77;;
58982;SDS011;44771;49.982;8.560;2023-04-25T16:07:57;19.35;;;11.05;;
58982;SDS011;44771;49.982;8.560;2023-04-25T16:12:59;15.02;;;12.82;;
58982;SDS011;44771;49.982;8.560;2023-04-25T16:23:41;15.02;;;12.45;;
58982;SDS011;44771;49.982;8.560;2023-04-25T16:28:43;13.38;;;12.57;;
58982;SDS011;44771;49.982;8.560;2023-04-25T16:33:45;12.07;;;11.25;;
58982;SDS011;44771;49.982;8.560;2023-04-25T16:38:50;13.23;;;11.93;;
58982;SDS011;44771;49.982;8.560;2023-04-25T16:43:52;13.68;;;11.55;;
58982;SDS011;44771;49.982;8.560;2023-04-25T16:48:54;14.82;;;13.48;;
58982;SDS011;44771;49.982;8.560;2023-04-25T16:53:57;13.77;;;12.73;;
58982;SDS011;44771;49.982;8.560;2023-04-25T16:58:59;14.20;;;13.20;;
58982;SDS011;44771;49.982;8.560;2023-04-25T17:04:01;14.85;;;13.60;;
58982;SDS011;44771;49.982;8.560;2023-04-25T17:09:05;13.43;;;12.30;;
58982;SDS011;44771;49.982;8.560;2023-04-25T17:14:06;15.77;;;14.23;;
58982;SDS011;44771;49.982;8.560;2023-04-25T17:19:08;13.50;;;12.55;;
58982;SDS011;44771;49.982;8.560;2023-04-25T17:24:11;13.13;;;12.10;;
58982;SDS011;44771;49.982;8.560;2023-04-25T17:29:13;13.27;;;12.27;;
58982;SDS011;44771;49.982;8.560;2023-04-25T17:34:15;13.68;;;11.88;;
58982;SDS011;44771;49.982;8.560;2023-04-25T17:39:18;12.20;;;11.25;;
58982;SDS011;44771;49.982;8.560;2023-04-25T17:44:20;12.73;;;11.50;;
58982;SDS011;44771;49.982;8.560;2023-04-25T17:49:21;14.82;;;13.18;;
58982;SDS011;44771;49.982;8.560;2023-04-25T17:54:25;16.17;;;14.32;;
58982;SDS011;44771;49.982;8.560;2023-04-25T17:59:27;14.20;;;13.13;;
58982;SDS011;44771;49.982;8.560;2023-04-25T18:04:29;15.10;;;13.95;;
58982;SDS011;44771;49.982;8.560;2023-04-25T18:09:32;15.75;;;13.98;;
58982;SDS011;44771;49.982;8.560;2023-04-25T18:14:34;13.80;;;12.48;;
58982;SDS011;44771;49.982;8.560;2023-04-25T18:19:35;15.35;;;12.75;;
58982;SDS011;44771;49.982;8.560;2023-04-25T18:24:39;14.55;;;13.27;;
58982;SDS011;44771;49.982;8.560;2023-04-25T18:29:40;14.10;;;12.73;;
58982;SDS011;44771;49.982;8.560;2023-04-25T18:34:42;14.93;;;12.80;;
58982;SDS011;44771;49.982;8.560;2023-04-25T18:39:45;15.48;;;14.00;;
58982;SDS011;44771;49.982;8.560;2023-04-25T18:44:47;14.80;;;13.80;;
58982;SDS011;44771;49.982;8.560;2023-04-25T18:49:50;14.23;;;12.85;;
58982;SDS011;44771;49.982;8.560;2023-04-25T18:54:53;14.77;;;13.70;;
58982;SDS011;44771;49.982;8.560;2023-04-25T18:59:55;13.52;;;12.25;;
58982;SDS011;44771;49.982;8.560;2023-04-25T19:04:57;14.65;;;13.30;;
58982;SDS011;44771;49.982;8.560;2023-04-25T19:10:00;12.98;;;12.00;;
58982;SDS011;44771;49.982;8.560;2023-04-25T19:15:03;15.95;;;14.55;;
58982;SDS011;44771;49.982;8.560;2023-04-25T19:20:05;13.02;;;12.13;;
58982;SDS011;44771;49.982;8.560;2023-04-25T19:25:12;15.55;;;14.52;;
58982;SDS011;44771;49.982;8.560;2023-04-25T19:30:17;14.57;;;13.25;;
58982;SDS011;44771;49.982;8.560;2023-04-25T19:35:19;12.25;;;11.48;;
58982;SDS011;44771;49.982;8.560;2023-04-25T19:40:22;14.18;;;13.15;;
58982;SDS011;44771;49.982;8.560;2023-04-25T19:45:25;13.90;;;12.73;;
58982;SDS011;44771;49.982;8.560;2023-04-25T19:50:27;15.02;;;13.70;;
58982;SDS011;44771;49.982;8.560;2023-04-25T19:55:30;14.82;;;13.93;;
58982;SDS011;44771;49.982;8.560;2023-04-25T20:00:32;12.85;;;11.90;;
58982;SDS011;44771;49.982;8.560;2023-04-25T20:05:33;14.43;;;13.52;;
58982;SDS011;44771;49.982;8.560;2023-04-25T20:10:36;14.20;;;12.98;;
58982;SDS011;44771;49.982;8.560;2023-04-25T20:15:38;14.85;;;13.80;;
58982;SDS011;44771;49.982;8.560;2023-04-25T20:20:40;13.60;;;12.60;;
58982;SDS011;44771;49.982;8.560;2023-04-25T20:25:46;13.38;;;12.15;;
58982;SDS011;44771;49.982;8.560;2023-04-25T20:30:47;13.62;;;12.70;;
58982;SDS011;44771;49.982;8.560;2023-04-25T20:35:49;16.58;;;14.87;;
58982;SDS011;44771;49.982;8.560;2023-04-25T20:40:52;13.13;;;12.37;;
58982;SDS011;44771;49.982;8.560;2023-04-25T20:45:54;14.65;;;13.52;;
58982;SDS011;44771;49.982;8.560;2023-04-25T20:50:56;16.30;;;13.82;;
58982;SDS011;44771;49.982;8.560;2023-04-25T20:55:59;15.10;;;14.00;;
58982;SDS011;44771;49.982;8.560;2023-04-25T21:01:01;16.58;;;15.48;;
58982;SDS011;44771;49.982;8.560;2023-04-25T21:06:03;14.93;;;13.93;;
58982;SDS011;44771;49.982;8.560;2023-04-25T21:11:06;15.68;;;14.30;;
58982;SDS011;44771;49.982;8.560;2023-04-25T21:16:08;15.20;;;14.23;;
58982;SDS011;44771;49.982;8.560;2023-04-25T21:21:09;16.77;;;15.68;;
58982;SDS011;44771;49.982;8.560;2023-04-25T21:26:13;16.73;;;15.30;;
58982;SDS011;44771;49.982;8.560;2023-04-25T21:31:14;17.23;;;16.08;;
58982;SDS011;44771;49.982;8.560;2023-04-25T21:36:16;17.02;;;15.77;;
58982;SDS011;44771;49.982;8.560;2023-04-25T21:41:19;15.73;;;14.45;;
58982;SDS011;44771;49.982;8.560;2023-04-25T21:46:21;17.05;;;15.50;;
58982;SDS011;44771;49.982;8.560;2023-04-25T21:51:24;17.85;;;16.55;;
58982;SDS011;44771;49.982;8.560;2023-04-25T21:56:27;16.55;;;15.55;;
58982;SDS011;44771;49.982;8.560;2023-04-25T22:01:29;15.88;;;14.65;;
58982;SDS011;44771;49.982;8.560;2023-04-25T22:06:30;15.65;;;14.75;;
58982;SDS011;44771;49.982;8.560;2023-04-25T22:11:33;17.00;;;15.80;;
58982;SDS011;44771;49.982;8.560;2023-04-25T22:16:35;17.15;;;15.95;;
58982;SDS011;44771;49.982;8.560;2023-04-25T22:21:41;15.38;;;14.38;;
58982;SDS011;44771;49.982;8.560;2023-04-25T22:26:48;17.40;;;16.30;;
58982;SDS011;44771;49.982;8.560;2023-04-25T22:31:50;15.88;;;14.63;;
58982;SDS011;44771;49.982;8.560;2023-04-25T22:36:53;16.12;;;15.02;;
58982;SDS011;44771;49.982;8.560;2023-04-25T22:41:56;16.85;;;15.55;;
58982;SDS011;44771;49.982;8.560;2023-04-25T22:46:58;17.23;;;16.15;;
58982;SDS011;44771;49.982;8.560;2023-04-25T22:52:00;15.77;;;14.68;;
58982;SDS011;44771;49.982;8.560;2023-04-25T22:57:06;18.70;;;17.40;;
58982;SDS011;44771;49.982;8.560;2023-04-25T23:02:07;18.25;;;16.77;;
58982;SDS011;44771;49.982;8.560;2023-04-25T23:07:09;18.30;;;16.85;;
58982;SDS011;44771;49.982;8.560;2023-04-25T23:12:12;15.60;;;14.60;;
58982;SDS011;44771;49.982;8.560;2023-04-25T23:17:16;17.30;;;15.93;;
58982;SDS011;44771;49.982;8.560;2023-04-25T23:22:18;18.42;;;17.02;;
58982;SDS011;44771;49.982;8.560;2023-04-25T23:27:21;18.35;;;16.83;;
58982;SDS011;44771;49.982;8.560;2023-04-25T23:32:23;20.60;;;18.10;;
58982;SDS011;44771;49.982;8.560;2023-04-25T23:37:25;18.95;;;17.17;;
58982;SDS011;44771;49.982;8.560;2023-04-25T23:42:28;17.58;;;16.02;;
58982;SDS011;44771;49.982;8.560;2023-04-25T23:47:30;17.87;;;16.80;;
58982;SDS011;44771;49.982;8.560;2023-04-25T23:52:31;16.50;;;15.50;;
58982;SDS011;44771;49.982;8.560;2023-04-25T23:57:34;18.67;;;17.48;;
